Time;durP1;ratioP1;P1;durP2;ratioP2;P2;SDS_P1;SDS_P2;PMS_P1;PMS_P2;Temp;Humidity;BMP_temperature;BMP_pressure;BME280_temperature;BME280_humidity;BME280_pressure;Samples;Min_cycle;Max_cycle;Signal;HPM_P1;HPM_P2
2021/03/10 00:01:01;;;;;;;19.23;12.18;;;;;;;7.05;66.02;101989.16;5057059;28;20028;-83
2021/03/10 00:03:27;;;;;;;21.33;13.40;;;;;;;7.11;66.06;101982.19;5061609;28;20025;-84
2021/03/10 00:05:54;;;;;;;20.67;12.40;;;;;;;7.13;66.08;101985.75;5058477;28;20029;-84
2021/03/10 00:08:20;;;;;;;23.48;12.93;;;;;;;7.17;66.20;101985.81;5058207;28;20083;-83
2021/03/10 00:10:47;;;;;;;17.85;11.90;;;;;;;7.20;66.12;101991.09;5057660;28;20029;-84
2021/03/10 00:13:13;;;;;;;23.00;12.00;;;;;;;7.26;66.21;101978.91;5055958;28;20036;-83
2021/03/10 00:15:40;;;;;;;21.52;12.75;;;;;;;7.30;66.12;101982.44;5055421;28;20025;-83
2021/03/10 00:18:07;;;;;;;18.05;12.02;;;;;;;7.29;66.13;101981.56;5052504;28;20036;-84
2021/03/10 00:20:34;;;;;;;22.17;14.20;;;;;;;7.34;66.23;101984.25;5055509;28;20152;-85
2021/03/10 00:23:01;;;;;;;21.92;13.20;;;;;;;7.41;65.91;101969.38;5056631;28;20032;-84
2021/03/10 00:25:28;;;;;;;20.88;13.00;;;;;;;7.44;66.02;101978.22;5051215;28;20028;-85
2021/03/10 00:27:55;;;;;;;20.02;12.95;;;;;;;7.47;65.75;101980.00;5057256;28;20467;-84
2021/03/10 00:30:21;;;;;;;17.27;12.13;;;;;;;7.51;65.75;101980.91;5055372;28;20048;-84
2021/03/10 00:32:48;;;;;;;20.55;12.65;;;;;;;7.55;65.81;101980.06;5062990;28;20025;-84
2021/03/10 00:35:18;;;;;;;22.70;13.80;;;;;;;7.56;65.84;101974.84;5057067;28;20029;-84
2021/03/10 00:37:45;;;;;;;21.20;13.02;;;;;;;7.59;65.76;101980.13;5055883;28;20078;-85
2021/03/10 00:40:12;;;;;;;23.67;13.45;;;;;;;7.58;65.76;101972.22;5055621;28;20483;-85
2021/03/10 00:42:42;;;;;;;25.67;13.52;;;;;;;7.64;65.97;101972.28;5055077;28;20029;-85
2021/03/10 00:45:10;;;;;;;26.15;15.25;;;;;;;7.59;65.81;101972.22;5054278;28;20116;-85
2021/03/10 00:47:37;;;;;;;21.48;13.50;;;;;;;7.62;65.41;101971.38;5054167;28;20392;-86
2021/03/10 00:50:04;;;;;;;19.52;13.02;;;;;;;7.60;65.74;101973.09;5054295;28;20060;-85
2021/03/10 00:52:34;;;;;;;21.98;13.35;;;;;;;7.64;65.75;101976.66;5054657;28;20044;-86
2021/03/10 00:55:01;;;;;;;22.15;13.60;;;;;;;7.61;65.78;101969.59;5057511;28;20036;-85
2021/03/10 00:57:28;;;;;;;26.38;14.90;;;;;;;7.63;65.68;101980.16;5051823;28;20021;-86
2021/03/10 00:59:54;;;;;;;26.25;13.95;;;;;;;7.63;65.79;101969.59;5054002;28;20028;-85
2021/03/10 01:02:20;;;;;;;21.83;14.45;;;;;;;7.64;66.09;101967.00;5053701;28;20434;-85
2021/03/10 01:04:47;;;;;;;24.58;14.52;;;;;;;7.68;65.43;101962.66;5054484;28;20053;-83
2021/03/10 01:07:17;;;;;;;30.00;15.60;;;;;;;7.71;65.77;101978.50;5058638;28;20033;-83
2021/03/10 01:09:43;;;;;;;23.27;13.63;;;;;;;7.75;65.45;101970.63;5054633;28;20046;-84
2021/03/10 01:12:10;;;;;;;27.00;16.65;;;;;;;7.77;65.55;101971.50;5054485;28;20493;-84
2021/03/10 01:14:37;;;;;;;26.65;16.45;;;;;;;7.80;65.97;101973.31;5055023;28;20021;-83
2021/03/10 01:17:04;;;;;;;31.70;17.42;;;;;;;7.85;65.91;101973.34;5055948;28;20033;-85
2021/03/10 01:19:30;;;;;;;35.25;17.85;;;;;;;7.87;65.83;101976.88;5056330;28;20468;-85
2021/03/10 01:22:01;;;;;;;28.95;17.10;;;;;;;7.92;65.38;101972.53;5055028;28;20037;-84
2021/03/10 01:24:28;;;;;;;29.88;18.05;;;;;;;7.93;65.93;101971.69;5052106;28;20029;-84
2021/03/10 01:26:55;;;;;;;32.67;15.93;;;;;;;7.94;65.55;101966.41;5055702;28;20033;-85
2021/03/10 01:29:21;;;;;;;29.63;17.63;;;;;;;7.97;65.62;101972.59;5054031;28;20480;-85
2021/03/10 01:31:51;;;;;;;36.33;18.38;;;;;;;8.01;65.59;101962.09;5055312;28;20112;-85
2021/03/10 01:34:18;;;;;;;34.70;18.83;;;;;;;7.99;65.81;101963.81;5055408;28;20033;-85
2021/03/10 01:36:44;;;;;;;38.17;19.38;;;;;;;7.95;66.10;101962.03;5056240;28;20387;-85
2021/03/10 01:39:13;;;;;;;30.77;17.75;;;;;;;7.98;65.88;101967.31;5052727;28;20488;-84
2021/03/10 01:41:49;;;;;;;33.75;18.58;;;;;;;8.02;65.71;101958.53;5051634;28;20498;-85
2021/03/10 01:44:18;;;;;;;36.03;18.80;;;;;;;8.00;65.96;101965.59;5052858;28;20096;-85
2021/03/10 01:46:51;;;;;;;36.35;19.38;;;;;;;8.00;65.92;101970.88;5056079;28;20028;-85
2021/03/10 01:49:21;;;;;;;33.83;18.63;;;;;;;7.96;65.83;101963.78;5050267;28;20033;-84
2021/03/10 01:51:48;;;;;;;37.05;20.13;;;;;;;7.95;66.13;101962.03;5053163;28;20052;-85
2021/03/10 01:54:14;;;;;;;42.78;21.30;;;;;;;7.96;66.38;101952.34;5053808;28;20021;-85
2021/03/10 01:56:42;;;;;;;39.30;20.90;;;;;;;7.97;66.31;101954.97;5055214;28;20021;-85
2021/03/10 01:59:10;;;;;;;37.88;19.92;;;;;;;7.94;66.53;101945.28;5053409;28;20079;-85
2021/03/10 02:01:39;;;;;;;44.25;22.10;;;;;;;7.99;66.33;101940.06;5054173;28;20025;-85
2021/03/10 02:04:07;;;;;;;40.30;22.27;;;;;;;7.93;66.54;101932.09;5053093;28;20115;-85
2021/03/10 02:09:53;;;;;;;38.58;20.80;;;;;;;7.91;66.39;101928.53;5073237;27;20473;-85
2021/03/10 02:12:33;;;;;;;41.83;23.08;;;;;;;7.81;66.98;101922.28;5057602;28;20374;-85
2021/03/10 02:15:17;;;;;;;45.00;23.48;;;;;;;7.80;66.27;101919.66;5057661;28;20029;-85
2021/03/10 02:18:01;;;;;;;45.20;24.33;;;;;;;7.75;66.42;101922.25;5056769;28;20039;-86
2021/03/10 02:20:32;;;;;;;44.40;23.30;;;;;;;7.64;66.22;101919.53;5055138;28;20535;-85
2021/03/10 02:26:27;;;;;;;43.97;23.05;;;;;;;7.62;66.53;101926.53;5064410;27;20364;-85
2021/03/10 02:28:58;;;;;;;50.13;26.95;;;;;;;7.49;66.61;101924.63;5086705;28;20040;-85
2021/03/10 02:31:27;;;;;;;50.60;24.35;;;;;;;7.41;66.91;101930.72;5071508;28;20055;-86
2021/03/10 02:33:54;;;;;;;46.65;26.20;;;;;;;7.36;66.90;101921.88;5066765;28;20098;-85
2021/03/10 02:36:22;;;;;;;48.38;25.27;;;;;;;7.33;66.82;101913.94;5070959;28;20037;-86
2021/03/10 02:38:50;;;;;;;53.78;25.88;;;;;;;7.24;67.22;101911.19;5071072;28;20441;-85
2021/03/10 02:41:18;;;;;;;57.80;28.92;;;;;;;7.22;67.10;101912.94;5071500;28;20048;-85
2021/03/10 02:43:47;;;;;;;47.97;23.30;;;;;;;7.21;66.98;101914.69;5068715;28;20032;-85
2021/03/10 02:46:16;;;;;;;46.08;23.70;;;;;;;7.18;67.08;101908.47;5070135;28;20051;-85
2021/03/10 02:48:45;;;;;;;56.42;26.95;;;;;;;7.14;66.90;101904.94;5070570;28;20114;-85
2021/03/10 02:51:12;;;;;;;52.35;25.92;;;;;;;7.11;66.90;101908.41;5070038;28;20021;-85
2021/03/10 02:53:41;;;;;;;48.08;25.13;;;;;;;7.09;67.04;101907.53;5071009;28;20067;-85
2021/03/10 02:56:11;;;;;;;51.65;27.15;;;;;;;7.04;67.21;101906.59;5070531;28;20028;-85
2021/03/10 02:58:39;;;;;;;54.15;25.40;;;;;;;7.02;67.35;101897.78;5070321;28;20029;-85
2021/03/10 03:01:07;;;;;;;50.55;26.85;;;;;;;7.00;67.37;101894.22;5070800;28;20060;-85
2021/03/10 03:03:34;;;;;;;54.47;26.35;;;;;;;6.95;67.40;101875.75;5070914;28;20025;-86
2021/03/10 03:06:00;;;;;;;53.25;25.75;;;;;;;6.93;67.50;101866.06;5072139;28;20035;-83
2021/03/10 03:08:30;;;;;;;58.60;29.05;;;;;;;6.91;67.49;101862.53;5071391;28;20055;-85
2021/03/10 03:10:58;;;;;;;56.40;29.17;;;;;;;6.90;67.49;101872.19;5072013;28;20024;-84
2021/03/10 03:13:27;;;;;;;56.45;26.63;;;;;;;6.87;67.76;101868.63;5070170;28;20063;-84
2021/03/10 03:15:57;;;;;;;61.20;27.85;;;;;;;6.85;67.66;101862.44;5072632;28;20040;-85
2021/03/10 03:18:28;;;;;;;64.32;28.98;;;;;;;6.84;67.79;101861.56;5071235;28;20035;-85
2021/03/10 03:20:55;;;;;;;57.47;28.45;;;;;;;6.82;67.87;101851.84;5074390;28;20120;-85
2021/03/10 03:23:24;;;;;;;56.47;27.48;;;;;;;6.85;67.38;101857.19;5078915;28;20079;-84
2021/03/10 03:25:52;;;;;;;61.50;29.30;;;;;;;6.82;67.78;101851.84;5072217;28;20033;-84
2021/03/10 03:28:24;;;;;;;60.30;27.65;;;;;;;6.83;68.08;101856.25;5072549;28;20021;-84
2021/03/10 03:30:53;;;;;;;56.60;28.77;;;;;;;6.82;67.73;101852.75;5069585;28;20031;-85
2021/03/10 03:33:24;;;;;;;55.70;27.98;;;;;;;6.80;67.75;101850.13;5065886;28;20035;-85
2021/03/10 03:35:53;;;;;;;64.13;27.85;;;;;;;6.74;68.13;101839.50;5047763;28;20060;-84
2021/03/10 03:38:23;;;;;;;57.97;28.27;;;;;;;6.77;68.07;101850.06;5056526;28;20040;-84
2021/03/10 03:40:53;;;;;;;52.67;26.17;;;;;;;6.76;68.07;101843.03;5058983;28;20040;-85
2021/03/10 03:43:22;;;;;;;57.58;27.98;;;;;;;6.99;67.41;101854.69;5055921;28;20025;-85
2021/03/10 03:45:49;;;;;;;50.22;26.45;;;;;;;7.06;66.99;101857.41;5058031;28;20029;-85
2021/03/10 03:48:17;;;;;;;60.63;27.50;;;;;;;7.06;67.09;101860.03;5059146;28;20024;-85
2021/03/10 03:50:44;;;;;;;57.70;28.33;;;;;;;7.10;66.72;101859.22;5055894;28;20033;-85
2021/03/10 03:53:13;;;;;;;66.78;30.10;;;;;;;7.08;66.97;101860.94;5056555;28;20102;-85
2021/03/10 03:55:40;;;;;;;63.60;29.85;;;;;;;7.05;66.86;101855.66;5056611;28;20395;-84
2021/03/10 03:58:07;;;;;;;66.35;30.88;;;;;;;7.08;66.80;101858.31;5056378;28;20025;-85
2021/03/10 04:00:34;;;;;;;63.20;29.10;;;;;;;7.03;67.12;101857.38;5055763;28;20032;-84
2021/03/10 04:03:01;;;;;;;71.75;32.22;;;;;;;7.02;67.13;101855.63;5057473;28;20042;-84
2021/03/10 04:05:28;;;;;;;67.68;31.35;;;;;;;6.97;67.29;101852.91;5057584;28;20044;-84
2021/03/10 04:07:57;;;;;;;68.55;31.75;;;;;;;7.02;67.32;101849.47;5057816;28;20029;-85
2021/03/10 04:10:26;;;;;;;72.60;31.70;;;;;;;7.03;67.11;101852.13;5056881;28;20090;-84
2021/03/10 04:12:53;;;;;;;70.93;32.58;;;;;;;6.96;67.58;101852.91;5057524;28;20028;-84
2021/03/10 04:15:20;;;;;;;69.05;31.13;;;;;;;7.01;67.46;101848.56;5057211;28;20036;-85
2021/03/10 04:17:47;;;;;;;78.55;34.28;;;;;;;7.02;67.44;101845.06;5057515;28;20024;-84
2021/03/10 04:20:16;;;;;;;81.25;34.55;;;;;;;7.02;67.38;101850.34;5056054;28;20017;-84
2021/03/10 04:22:43;;;;;;;72.13;33.83;;;;;;;7.05;67.07;101854.75;5054469;28;20116;-84
2021/03/10 04:25:11;;;;;;;69.65;32.30;;;;;;;7.01;67.31;101847.69;5057264;28;20471;-85
2021/03/10 04:27:38;;;;;;;71.28;32.90;;;;;;;6.98;67.48;101840.66;5055967;28;20056;-84
2021/03/10 04:30:07;;;;;;;68.35;32.67;;;;;;;6.99;67.63;101833.63;5055771;28;20025;-85
2021/03/10 04:32:33;;;;;;;79.93;36.13;;;;;;;6.98;67.62;101835.38;5057351;28;20033;-84
2021/03/10 04:35:00;;;;;;;87.18;36.53;;;;;;;7.02;67.47;101836.28;5057223;28;20111;-84
2021/03/10 04:37:27;;;;;;;82.78;38.17;;;;;;;6.97;67.87;101838.88;5054274;28;20021;-84
2021/03/10 04:39:53;;;;;;;81.70;35.13;;;;;;;7.02;67.50;101833.66;5057273;28;20388;-83
2021/03/10 04:42:20;;;;;;;87.63;39.47;;;;;;;6.99;67.79;101834.50;5056550;28;20232;-83
2021/03/10 04:44:46;;;;;;;96.50;41.17;;;;;;;6.96;67.78;101824.78;5056545;28;20074;-85
2021/03/10 04:47:12;;;;;;;81.32;37.13;;;;;;;7.02;67.73;101828.38;5065154;28;20074;-84
2021/03/10 04:49:38;;;;;;;87.10;41.20;;;;;;;7.05;67.41;101831.03;5055081;28;20032;-84
2021/03/10 04:52:05;;;;;;;85.10;40.00;;;;;;;7.06;67.49;101822.28;5055638;28;20036;-83
2021/03/10 04:54:31;;;;;;;90.88;42.97;;;;;;;7.02;67.51;101825.75;5054042;28;20090;-84
2021/03/10 04:56:57;;;;;;;83.85;41.50;;;;;;;7.01;67.64;101816.94;5054893;28;20024;-83
2021/03/10 04:59:24;;;;;;;89.82;42.78;;;;;;;7.03;67.92;101819.59;5054419;28;20110;-84
2021/03/10 05:01:50;;;;;;;94.93;44.85;;;;;;;7.05;67.91;101818.78;5053858;28;20025;-84
2021/03/10 05:04:17;;;;;;;94.05;44.88;;;;;;;7.07;67.91;101816.16;5053217;28;20024;-84
2021/03/10 05:06:43;;;;;;;95.78;43.50;;;;;;;7.07;67.81;101817.00;5055352;28;20100;-84
2021/03/10 05:09:09;;;;;;;94.03;45.92;;;;;;;7.07;67.93;101817.00;5053581;28;20074;-84
2021/03/10 05:11:35;;;;;;;87.93;42.67;;;;;;;7.15;67.83;101818.84;5052235;28;20025;-85
2021/03/10 05:14:02;;;;;;;90.70;43.42;;;;;;;7.11;68.21;101808.25;5052292;28;20033;-84
2021/03/10 05:16:28;;;;;;;92.28;43.08;;;;;;;7.16;67.93;101812.72;5052208;28;20119;-85
2021/03/10 05:18:54;;;;;;;92.97;45.05;;;;;;;7.12;68.21;101814.44;5053339;28;20028;-84
2021/03/10 05:21:20;;;;;;;89.63;43.85;;;;;;;7.15;68.24;101814.44;5052327;28;20417;-84
2021/03/10 05:23:47;;;;;;;87.18;45.65;;;;;;;7.21;67.96;101808.38;5053799;28;20043;-84
2021/03/10 05:26:14;;;;;;;90.50;45.78;;;;;;;7.17;67.95;101806.59;5053642;28;20032;-84
2021/03/10 05:28:41;;;;;;;82.93;43.90;;;;;;;7.21;67.90;101798.69;5054168;28;20032;-84
2021/03/10 05:31:08;;;;;;;90.53;46.22;;;;;;;7.25;67.81;101811.06;5053530;28;20029;-84
2021/03/10 05:33:35;;;;;;;83.15;41.20;;;;;;;7.22;67.91;101811.00;5053434;28;20036;-84
2021/03/10 05:36:04;;;;;;;85.18;43.33;;;;;;;7.23;68.00;101822.47;5052886;28;20033;-84
2021/03/10 05:38:32;;;;;;;87.70;43.97;;;;;;;7.25;67.94;101816.31;5050492;28;20112;-84
2021/03/10 05:41:00;;;;;;;99.68;45.80;;;;;;;7.20;68.13;101811.88;5054132;28;20482;-85
2021/03/10 05:43:26;;;;;;;86.03;43.22;;;;;;;7.25;67.83;101811.06;5053204;28;20140;-84
2021/03/10 05:45:53;;;;;;;81.45;42.65;;;;;;;7.28;67.94;101807.56;5052717;28;20053;-85
2021/03/10 05:48:19;;;;;;;84.10;42.22;;;;;;;7.34;67.63;101815.53;5051458;28;20033;-85
2021/03/10 05:50:45;;;;;;;81.80;41.55;;;;;;;7.33;67.64;101811.13;5052221;28;20056;-85
2021/03/10 05:53:14;;;;;;;74.82;40.20;;;;;;;7.34;67.59;101810.25;5049684;28;20029;-85
2021/03/10 05:55:41;;;;;;;77.20;41.25;;;;;;;7.35;67.49;101806.75;5052678;28;20086;-86
2021/03/10 05:58:10;;;;;;;74.43;40.65;;;;;;;7.32;67.78;101803.19;5053390;28;20021;-85
2021/03/10 06:00:41;;;;;;;75.68;40.47;;;;;;;7.33;67.77;101802.31;5052959;28;20116;-86
2021/03/10 06:03:08;;;;;;;70.72;39.78;;;;;;;7.33;67.51;101795.31;5054137;28;20044;-85
2021/03/10 06:05:34;;;;;;;75.90;41.45;;;;;;;7.31;67.92;101798.78;5053004;28;20037;-84
2021/03/10 06:10:42;;;;;;;71.82;39.10;;;;;;;7.31;68.03;101789.13;5080615;27;20676;-84
2021/03/10 06:16:20;;;;;;;75.60;39.67;;;;;;;7.37;67.49;101789.19;5111062;27;20367;-84
2021/03/10 06:18:47;;;;;;;81.78;42.00;;;;;;;7.34;67.57;101793.53;5111455;28;20335;-84
2021/03/10 06:21:15;;;;;;;82.00;39.47;;;;;;;7.30;68.00;101787.34;5093931;28;20042;-85
2021/03/10 06:24:00;;;;;;;77.60;38.50;;;;;;;7.38;67.42;101776.91;5098528;28;20024;-84
2021/03/10 06:29:15;;;;;;;74.60;39.28;;;;;;;7.39;67.64;101771.63;5109282;27;20366;-85
2021/03/10 06:31:42;;;;;;;77.13;37.25;;;;;;;7.30;67.73;101771.53;5093379;28;20044;-86
2021/03/10 06:36:50;;;;;;;80.43;39.17;;;;;;;7.33;67.91;101771.56;5045570;27;999324;-84
2021/03/10 06:39:31;;;;;;;68.07;37.97;;;;;;;7.47;67.41;101774.31;5065083;28;20097;-84
2021/03/10 06:42:00;;;;;;;73.50;39.40;;;;;;;7.40;67.75;101778.66;5042405;28;20029;-84
2021/03/10 06:44:28;;;;;;;78.97;37.10;;;;;;;7.42;67.55;101776.03;5041852;28;20033;-84
2021/03/10 06:47:04;;;;;;;68.03;37.72;;;;;;;7.47;67.54;101774.31;5041416;28;20140;-84
2021/03/10 06:49:33;;;;;;;70.57;37.90;;;;;;;7.52;67.46;101780.50;5041059;28;20025;-84
2021/03/10 06:52:01;;;;;;;74.45;38.25;;;;;;;7.52;67.51;101771.72;5039540;28;20034;-84
2021/03/10 06:54:29;;;;;;;71.88;39.35;;;;;;;7.59;67.44;101768.25;5040225;28;20037;-84
2021/03/10 06:59:46;;;;;;;72.45;38.85;;;;;;;7.51;67.73;101791.03;5075045;27;20405;-84
2021/03/10 07:02:22;;;;;;;66.47;36.05;;;;;;;7.66;67.68;101785.00;5065359;28;20395;-84
2021/03/10 07:04:51;;;;;;;68.93;36.63;;;;;;;7.75;67.02;101778.03;5067937;28;20125;-85
2021/03/10 07:07:18;;;;;;;68.40;35.72;;;;;;;7.72;67.08;101775.38;5068902;28;20025;-86
2021/03/10 07:09:45;;;;;;;68.88;36.55;;;;;;;7.73;67.34;101782.41;5068757;28;20024;-86
2021/03/10 07:12:15;;;;;;;67.55;37.30;;;;;;;7.73;67.03;101787.69;5068626;28;20059;-86
2021/03/10 07:14:41;;;;;;;75.28;39.63;;;;;;;7.73;67.36;101777.13;5066695;28;20530;-86
2021/03/10 07:17:10;;;;;;;69.47;36.83;;;;;;;7.73;67.27;101771.88;5064610;28;20102;-86
2021/03/10 07:19:38;;;;;;;72.85;37.92;;;;;;;7.79;66.75;101784.22;5067380;28;20468;-86
2021/03/10 07:22:12;;;;;;;77.60;40.33;;;;;;;7.78;67.36;101778.06;5066500;28;20384;-85
2021/03/10 07:24:50;;;;;;;74.82;37.30;;;;;;;7.84;67.53;101771.03;5066112;28;20078;-86
2021/03/10 07:27:18;;;;;;;71.15;40.55;;;;;;;7.88;67.29;101775.50;5062611;28;20033;-86
2021/03/10 07:29:45;;;;;;;68.85;36.35;;;;;;;7.93;67.25;101773.75;5066989;28;20082;-86
2021/03/10 07:32:16;;;;;;;66.63;36.10;;;;;;;7.98;66.95;101768.50;5066152;28;20043;-87
2021/03/10 07:34:42;;;;;;;67.78;37.17;;;;;;;7.99;67.18;101773.78;5068022;28;20025;-87
2021/03/10 07:37:13;;;;;;;68.18;39.38;;;;;;;8.09;66.48;101775.59;5067621;28;20043;-86
2021/03/10 07:39:40;;;;;;;69.57;38.17;;;;;;;8.09;66.99;101777.38;5065600;28;20648;-86
2021/03/10 07:42:11;;;;;;;72.53;38.83;;;;;;;8.14;66.43;101782.66;5064796;28;20119;-86
2021/03/10 07:44:37;;;;;;;74.47;38.10;;;;;;;8.15;66.64;101781.78;5065798;28;20016;-86
2021/03/10 07:49:42;;;;;;;77.07;39.70;;;;;;;8.24;66.17;101766.00;5055834;27;20425;-87
2021/03/10 07:52:13;;;;;;;80.78;41.83;;;;;;;8.29;66.44;101777.47;5039111;28;20025;-87
2021/03/10 07:54:41;;;;;;;90.45;48.20;;;;;;;8.36;66.86;101767.78;5041413;28;20065;-87
2021/03/10 07:57:10;;;;;;;79.68;42.08;;;;;;;8.33;66.85;101760.75;5036287;28;20022;-87
2021/03/10 07:59:39;;;;;;;73.75;40.42;;;;;;;8.39;66.69;101760.78;5045281;28;20117;-87
2021/03/10 08:02:07;;;;;;;73.93;39.10;;;;;;;8.41;66.36;101764.31;5048175;28;20081;-86
2021/03/10 08:04:35;;;;;;;78.28;40.20;;;;;;;8.48;66.23;101764.38;5043234;28;20519;-87
2021/03/10 08:07:01;;;;;;;83.03;41.35;;;;;;;8.51;66.53;101764.38;5044955;28;20512;-86
2021/03/10 08:09:29;;;;;;;67.10;39.08;;;;;;;8.57;66.56;101767.94;5048089;28;20496;-86
2021/03/10 08:12:11;;;;;;;67.60;39.90;;;;;;;8.73;66.59;101763.56;5042367;28;20045;-87
2021/03/10 08:14:40;;;;;;;75.90;40.10;;;;;;;8.56;67.02;101765.25;5042603;28;20469;-87
2021/03/10 08:17:07;;;;;;;72.35;39.72;;;;;;;8.65;66.81;101764.41;5046877;28;20093;-87
2021/03/10 08:19:33;;;;;;;68.57;39.22;;;;;;;8.73;66.17;101755.66;5042612;28;20048;-87
2021/03/10 08:22:00;;;;;;;68.93;36.80;;;;;;;8.72;66.07;101755.63;5040878;28;20573;-87
2021/03/10 08:24:27;;;;;;;76.43;40.13;;;;;;;8.64;66.72;101758.25;5041482;28;20100;-86
2021/03/10 08:26:57;;;;;;;69.07;38.03;;;;;;;8.79;65.98;101765.31;5042241;28;20028;-86
2021/03/10 08:29:24;;;;;;;76.32;40.53;;;;;;;8.85;66.60;101754.78;5044056;28;20037;-86
2021/03/10 08:31:55;;;;;;;71.57;39.10;;;;;;;8.84;66.34;101746.84;5038158;28;20022;-87
2021/03/10 08:34:34;;;;;;;69.05;37.20;;;;;;;8.92;65.74;101749.50;5043165;28;20032;-86
2021/03/10 08:37:04;;;;;;;70.38;37.65;;;;;;;8.91;66.31;101738.06;5042928;28;20033;-86
2021/03/10 08:39:30;;;;;;;64.57;35.92;;;;;;;8.88;65.83;101746.88;5040557;28;20255;-87
2021/03/10 08:41:58;;;;;;;65.82;34.75;;;;;;;8.82;65.85;101741.56;5036934;28;20044;-87
2021/03/10 08:44:25;;;;;;;78.65;40.67;;;;;;;8.80;66.20;101745.97;5038888;28;20033;-89
2021/03/10 08:46:54;;;;;;;66.65;34.60;;;;;;;8.90;65.65;101739.81;5045065;28;20026;-88
2021/03/10 08:49:26;;;;;;;65.00;34.30;;;;;;;8.98;66.08;101738.94;5040158;28;20476;-87
2021/03/10 08:54:53;;;;;;;63.97;35.30;;;;;;;9.04;65.16;101739.81;5162621;27;20077;-87
2021/03/10 08:57:23;;;;;;;67.63;34.10;;;;;;;9.12;65.12;101737.19;5146131;27;20022;-87
2021/03/10 08:59:50;;;;;;;60.08;32.78;;;;;;;9.12;65.56;101728.38;5152175;27;20500;-87
2021/03/10 09:02:24;;;;;;;62.67;33.72;;;;;;;9.16;65.42;101711.59;5137933;27;20054;-87
2021/03/10 09:04:51;;;;;;;61.70;34.17;;;;;;;9.21;65.46;101712.50;5138787;27;20069;-88
2021/03/10 09:07:18;;;;;;;54.78;33.83;;;;;;;9.28;65.38;101714.25;5144534;27;20023;-88
2021/03/10 09:09:47;;;;;;;57.90;33.70;;;;;;;9.33;64.73;101701.94;5145157;27;20043;-87
2021/03/10 09:12:14;;;;;;;58.70;31.90;;;;;;;9.23;65.34;101702.81;5144663;27;20020;-86
2021/03/10 09:14:42;;;;;;;58.20;32.75;;;;;;;9.33;65.18;101701.94;5144132;27;20113;-83
2021/03/10 09:17:08;;;;;;;60.28;33.90;;;;;;;9.28;64.79;101693.09;5147534;27;20023;-86
2021/03/10 09:22:18;;;;;;;64.47;33.88;;;;;;;9.43;64.15;101686.03;5068903;27;20424;-86
2021/03/10 09:27:37;;;;;;;58.10;30.90;;;;;;;9.62;63.96;101687.75;5086118;27;20410;-84
2021/03/10 09:30:10;;;;;;;51.05;29.75;;;;;;;9.79;63.35;101689.47;5060518;28;20075;-86
2021/03/10 09:32:41;;;;;;;52.65;31.30;;;;;;;9.70;63.63;101685.97;5044981;28;20057;-86
2021/03/10 09:35:12;;;;;;;51.67;31.60;;;;;;;9.86;63.24;101683.28;5034247;28;20033;-87
2021/03/10 09:37:49;;;;;;;49.27;28.10;;;;;;;10.00;62.59;101686.75;5041446;28;20497;-86
2021/03/10 09:40:17;;;;;;;54.67;30.95;;;;;;;10.06;63.01;101682.34;5044940;28;20044;-88
2021/03/10 09:42:56;;;;;;;54.38;28.67;;;;;;;9.98;62.20;101674.41;5031603;28;20038;-89
2021/03/10 09:45:27;;;;;;;50.40;28.92;;;;;;;10.01;62.11;101674.41;5046313;28;20037;-90
2021/03/10 09:47:53;;;;;;;42.15;25.63;;;;;;;10.05;62.55;101668.19;5046679;28;20394;-91
2021/03/10 09:56:03;;;;;;;42.35;24.95;;;;;;;10.31;60.92;101664.53;5090253;27;20400;-90
2021/03/10 09:58:29;;;;;;;39.08;23.77;;;;;;;10.41;60.54;101657.47;5070326;28;20060;-90
2021/03/10 10:01:00;;;;;;;49.10;25.33;;;;;;;10.42;60.06;101659.19;5056382;28;20120;-90
2021/03/10 10:06:12;;;;;;;35.03;22.92;;;;;;;10.49;59.09;101666.22;5430008;23;20542;-91
2021/03/10 10:10:58;;;;;;;54.65;31.98;;;;;;;10.61;58.11;101649.38;5030654;28;20469;-92
2021/03/10 10:15:08;;;;;;;34.17;21.48;;;;;;;10.64;57.49;101651.97;5268691;23;20042;-88
2021/03/10 10:17:37;;;;;;;39.10;21.67;;;;;;;10.83;57.06;101642.13;5022792;28;20948;-89
2021/03/10 10:23:06;;;;;;;33.25;19.95;;;;;;;10.84;56.27;101641.22;4963200;28;20055;-90
2021/03/10 10:26:02;;;;;;;48.03;20.63;;;;;;;10.99;56.39;101643.75;4990906;28;20046;-91
2021/03/10 10:28:37;;;;;;;34.22;18.95;;;;;;;10.83;55.97;101628.88;5000381;28;20031;-90
2021/03/10 10:31:03;;;;;;;29.75;19.15;;;;;;;10.76;56.16;101627.16;4983841;28;20049;-89
2021/03/10 10:33:29;;;;;;;32.35;20.08;;;;;;;11.10;55.79;101621.56;4976152;28;20061;-89
2021/03/10 10:35:59;;;;;;;30.13;19.08;;;;;;;11.12;55.02;101614.47;4980108;28;20126;-90
2021/03/10 10:38:44;;;;;;;32.60;19.98;;;;;;;11.08;55.10;101623.34;4977770;28;20062;-91
2021/03/10 10:41:51;;;;;;;33.17;20.15;;;;;;;11.14;54.15;101620.63;4977561;28;20460;-91
2021/03/10 10:44:17;;;;;;;32.17;18.33;;;;;;;11.31;54.06;101609.84;4972563;28;20069;-90
2021/03/10 10:46:50;;;;;;;34.45;20.23;;;;;;;11.27;54.49;101606.34;4983247;28;20023;-91
2021/03/10 10:49:41;;;;;;;;;;;;;;;11.35;53.67;101600.09;4982063;28;20501;-90
2021/03/10 10:52:33;;;;;;;32.03;17.10;;;;;;;11.29;53.63;101607.22;4983801;28;19976;-89
2021/03/10 10:55:09;;;;;;;29.38;16.88;;;;;;;11.31;53.93;101594.81;4971786;28;20135;-89
2021/03/10 10:57:36;;;;;;;27.65;18.27;;;;;;;11.36;53.40;101596.53;4985593;28;20035;-91
2021/03/10 11:00:46;;;;;;;29.85;18.10;;;;;;;11.58;53.18;101586.56;4984853;28;20449;-92
2021/03/10 11:03:13;;;;;;;29.58;16.45;;;;;;;11.67;52.90;101590.88;4977899;28;20051;-91
2021/03/10 11:05:43;;;;;;;29.25;17.98;;;;;;;11.86;52.41;101581.75;4976920;28;20034;-89
2021/03/10 11:08:12;;;;;;;31.40;18.08;;;;;;;11.90;52.29;101578.16;4964525;28;20031;-91
2021/03/10 11:10:42;;;;;;;24.33;16.23;;;;;;;11.76;51.53;101574.81;5044213;23;20132;-90
2021/03/10 11:13:08;;;;;;;28.77;17.83;;;;;;;11.81;51.23;101575.63;4971380;28;20026;-90
2021/03/10 11:15:34;;;;;;;30.40;17.80;;;;;;;11.70;51.19;101574.88;4974177;28;20068;-88
2021/03/10 11:18:01;;;;;;;27.80;16.50;;;;;;;12.04;50.65;101566.53;4972790;28;20138;-89
2021/03/10 11:20:37;;;;;;;27.77;17.02;;;;;;;12.11;49.49;101570.81;4969597;28;20035;-93
2021/03/10 11:23:09;;;;;;;33.50;18.15;;;;;;;12.12;50.53;101567.25;4965992;28;20136;-90
2021/03/10 11:25:43;;;;;;;28.63;17.90;;;;;;;11.82;49.70;101572.97;4962868;28;20397;-91
2021/03/10 11:28:14;;;;;;;28.67;17.08;;;;;;;12.11;49.13;101565.50;5090290;23;20080;-91
2021/03/10 11:31:09;;;;;;;28.13;17.48;;;;;;;12.14;47.90;101566.34;4993563;28;20042;-91
2021/03/10 11:33:57;;;;;;;25.98;16.90;;;;;;;11.85;47.52;101552.56;4932817;29;20047;-91
2021/03/10 11:38:00;;;;;;;32.65;20.45;;;;;;;12.10;47.81;101556.66;4995245;28;20129;-91
2021/03/10 11:39:56;;;;;;;33.72;18.38;;;;;;;11.98;47.75;101549.75;4937676;28;20041;-90
2021/03/10 11:42:35;;;;;;;26.50;17.27;;;;;;;11.93;47.80;101561.31;4994015;28;20081;-89
2021/03/10 11:45:41;;;;;;;28.55;17.90;;;;;;;12.31;47.62;101530.66;4988546;28;20029;-94
2021/03/10 11:48:07;;;;;;;26.05;15.60;;;;;;;12.02;48.37;101539.09;4978985;28;20121;-92
2021/03/10 11:51:10;;;;;;;24.50;16.63;;;;;;;12.24;47.71;101524.56;5005918;23;20044;-93
2021/03/10 11:53:42;;;;;;;26.95;17.33;;;;;;;12.36;47.93;101525.28;4993450;28;20076;-92
2021/03/10 11:56:08;;;;;;;28.00;16.77;;;;;;;12.38;47.42;101531.44;4993404;28;20433;-87
2021/03/10 11:58:34;;;;;;;31.92;17.77;;;;;;;12.32;47.67;101526.22;4994374;28;20278;-89
2021/03/10 12:01:01;;;;;;;27.63;17.30;;;;;;;12.23;47.36;101533.44;4993799;28;20095;-89
2021/03/10 12:03:27;;;;;;;31.55;19.48;;;;;;;12.26;47.50;101512.16;4994920;28;20596;-89
2021/03/10 12:05:53;;;;;;;28.70;18.15;;;;;;;12.58;47.41;101510.69;4994124;28;20055;-89
2021/03/10 12:08:19;;;;;;;27.98;16.10;;;;;;;12.68;47.01;101507.91;4993935;28;20049;-88
2021/03/10 12:10:45;;;;;;;25.45;16.38;;;;;;;12.52;46.94;101507.28;4995563;28;20037;-91
2021/03/10 12:13:12;;;;;;;25.05;16.70;;;;;;;12.43;45.90;101497.69;4994509;28;20390;-90
2021/03/10 12:15:38;;;;;;;29.30;17.70;;;;;;;12.65;46.08;101491.97;4995110;28;20050;-88